Time;durP1;ratioP1;P1;durP2;ratioP2;P2;SDS_P1;SDS_P2;PMS_P1;PMS_P2;Temp;Humidity;BMP_temperature;BMP_pressure;BME280_temperature;BME280_humidity;BME280_pressure;Samples;Min_cycle;Max_cycle;Signal;HPM_P1;HPM_P2
2023/03/07 00:00:36;;;;;;;14.57;8.18;;;4.00;99.90;;;;;;4997549;28;20292;-38
2023/03/07 00:03:02;;;;;;;11.45;8.00;;;4.00;99.90;;;;;;5017843;28;20041;-37
2023/03/07 00:05:29;;;;;;;8.38;6.45;;;4.00;99.90;;;;;;5013304;28;20407;-37
2023/03/07 00:07:54;;;;;;;9.02;5.97;;;4.00;99.90;;;;;;5012640;28;20073;-37
2023/03/07 00:10:20;;;;;;;9.98;6.22;;;4.00;99.90;;;;;;5003053;28;20147;-37
2023/03/07 00:12:45;;;;;;;9.68;6.35;;;4.00;99.90;;;;;;5006765;28;20033;-38
2023/03/07 00:15:11;;;;;;;9.82;6.10;;;4.00;99.90;;;;;;4997523;28;20038;-37
2023/03/07 00:17:38;;;;;;;10.73;6.57;;;4.00;99.90;;;;;;5008561;28;20042;-37
2023/03/07 00:20:10;;;;;;;10.18;6.07;;;4.00;99.90;;;;;;5011193;28;20036;-37
2023/03/07 00:22:36;;;;;;;10.38;6.18;;;4.00;99.90;;;;;;5010789;28;20088;-37
2023/03/07 00:25:03;;;;;;;10.40;6.00;;;4.00;99.90;;;;;;4996027;28;20037;-37
2023/03/07 00:27:30;;;;;;;11.15;6.50;;;4.00;99.90;;;;;;5004591;28;20042;-37
2023/03/07 00:29:55;;;;;;;8.55;5.50;;;4.00;99.90;;;;;;5005638;28;20042;-37
2023/03/07 00:32:21;;;;;;;10.15;5.13;;;4.00;99.90;;;;;;5010060;28;20110;-37
2023/03/07 00:34:47;;;;;;;4.68;3.67;;;4.00;99.90;;;;;;5004446;28;20478;-37
2023/03/07 00:37:14;;;;;;;5.28;3.20;;;4.00;99.90;;;;;;5013095;28;20395;-37
2023/03/07 00:39:40;;;;;;;2.85;2.30;;;4.00;99.90;;;;;;5012886;28;20045;-37
2023/03/07 00:42:06;;;;;;;4.13;2.05;;;4.00;99.90;;;;;;5003642;28;20038;-37
2023/03/07 00:44:32;;;;;;;2.67;1.90;;;4.00;99.90;;;;;;5000350;28;20045;-37
2023/03/07 00:46:58;;;;;;;1.65;1.55;;;4.00;99.90;;;;;;5008229;28;20030;-37
2023/03/07 00:49:24;;;;;;;1.85;1.40;;;4.00;99.90;;;;;;5007446;28;20112;-37
2023/03/07 00:51:49;;;;;;;2.13;1.55;;;3.90;99.90;;;;;;5009865;28;20073;-37
2023/03/07 00:54:15;;;;;;;2.67;1.55;;;3.90;99.90;;;;;;4992332;28;20034;-37
2023/03/07 00:56:41;;;;;;;2.28;1.75;;;3.90;99.90;;;;;;5002113;28;20050;-37
2023/03/07 00:59:07;;;;;;;1.63;1.52;;;3.90;99.90;;;;;;4995373;28;20483;-37
2023/03/07 01:01:33;;;;;;;2.80;1.92;;;3.90;99.90;;;;;;4995617;28;20416;-37
2023/03/07 01:03:59;;;;;;;2.20;1.77;;;3.90;99.90;;;;;;4992185;28;20114;-37
2023/03/07 01:06:27;;;;;;;2.53;1.85;;;3.90;99.90;;;;;;5010053;28;20483;-37
2023/03/07 01:09:04;;;;;;;3.75;1.95;;;3.90;99.90;;;;;;5002882;28;20048;-37
2023/03/07 01:11:31;;;;;;;2.90;1.80;;;3.90;99.90;;;;;;5003389;28;20045;-37
2023/03/07 01:13:58;;;;;;;3.30;1.98;;;3.80;99.90;;;;;;5006805;28;20038;-37
2023/03/07 01:16:29;;;;;;;2.05;1.60;;;3.90;99.90;;;;;;4999552;28;20045;-37
2023/03/07 01:19:00;;;;;;;2.80;1.60;;;3.90;99.90;;;;;;5006123;28;20080;-38
2023/03/07 01:21:31;;;;;;;2.65;1.55;;;3.80;99.90;;;;;;5005337;28;20034;-37
2023/03/07 01:23:57;;;;;;;4.13;1.85;;;3.80;99.90;;;;;;4998731;28;20088;-37
2023/03/07 01:26:25;;;;;;;3.38;1.70;;;3.90;99.90;;;;;;5008367;28;20423;-37
2023/03/07 01:28:52;;;;;;;2.38;1.70;;;3.80;99.90;;;;;;4996602;28;20237;-37
2023/03/07 01:31:18;;;;;;;3.83;1.67;;;3.80;99.90;;;;;;4993507;28;20038;-37
2023/03/07 01:33:45;;;;;;;3.83;1.70;;;3.80;99.90;;;;;;4996337;28;20119;-37
2023/03/07 01:36:27;;;;;;;2.55;1.33;;;3.80;99.90;;;;;;5001047;28;20065;-37
2023/03/07 01:39:05;;;;;;;3.80;1.63;;;3.80;99.90;;;;;;5072045;22;20053;-86
2023/03/07 01:41:36;;;;;;;2.97;1.58;;;3.80;99.90;;;;;;5031118;28;20377;-85
2023/03/07 01:44:15;;;;;;;2.15;1.33;;;3.80;99.90;;;;;;5027888;28;20034;-85
2023/03/07 01:47:04;;;;;;;2.17;1.35;;;3.80;99.90;;;;;;5031210;28;20049;-85
2023/03/07 01:49:32;;;;;;;2.35;1.48;;;3.80;99.90;;;;;;5001171;28;20124;-85
2023/03/07 01:52:25;;;;;;;3.30;1.55;;;3.70;99.90;;;;;;5011109;28;20113;-86
2023/03/07 01:58:50;;;;;;;2.83;1.20;;;3.70;99.90;;;;;;4972564;28;20041;-85
2023/03/07 02:01:25;;;;;;;2.20;1.17;;;3.60;99.90;;;;;;5017905;28;20121;-85
2023/03/07 02:03:57;;;;;;;1.30;1.20;;;3.70;99.90;;;;;;5002250;28;20113;-85
2023/03/07 02:06:31;;;;;;;3.22;1.00;;;3.60;99.90;;;;;;5026732;28;20126;-85
2023/03/07 02:09:12;;;;;;;2.63;1.38;;;3.60;99.90;;;;;;4988477;28;20562;-85
2023/03/07 02:12:00;;;;;;;3.13;1.60;;;3.60;99.90;;;;;;5007011;28;20044;-85
2023/03/07 02:14:41;;;;;;;4.20;1.50;;;3.50;99.90;;;;;;5017814;28;20065;-85
2023/03/07 02:17:21;;;;;;;3.53;1.52;;;3.50;99.90;;;;;;4998080;28;21116;-85
2023/03/07 02:20:17;;;;;;;5.68;1.70;;;3.40;99.90;;;;;;4994575;28;20381;-86
2023/03/07 02:22:55;;;;;;;2.80;1.63;;;3.40;99.90;;;;;;4996913;28;20037;-86
2023/03/07 02:25:58;;;;;;;5.28;1.88;;;3.30;99.90;;;;;;5018214;28;20050;-86
2023/03/07 02:28:49;;;;;;;3.47;1.83;;;3.30;99.90;;;;;;4999032;28;20042;-85
2023/03/07 02:31:17;;;;;;;4.53;1.90;;;3.20;99.90;;;;;;4994080;28;20049;-86
2023/03/07 02:33:56;;;;;;;3.50;1.60;;;3.20;99.90;;;;;;4990630;28;20105;-85
2023/03/07 02:36:33;;;;;;;4.75;1.90;;;3.20;99.90;;;;;;4996631;28;20042;-85
2023/03/07 02:39:33;;;;;;;4.93;1.92;;;3.10;99.90;;;;;;5005650;28;20110;-85
2023/03/07 02:42:13;;;;;;;3.47;1.65;;;3.10;99.90;;;;;;4999986;28;20547;-85
2023/03/07 02:45:01;;;;;;;7.70;2.08;;;3.10;99.90;;;;;;5010446;28;20046;-86
2023/03/07 02:47:36;;;;;;;3.88;1.70;;;3.10;99.90;;;;;;4998796;28;20046;-85
2023/03/07 02:50:11;;;;;;;4.10;1.70;;;3.10;99.90;;;;;;5008283;28;20277;-85
2023/03/07 02:52:53;;;;;;;6.03;1.60;;;3.00;99.90;;;;;;4995843;28;20113;-86
2023/03/07 02:55:47;;;;;;;4.60;1.90;;;3.10;99.90;;;;;;4998134;28;20050;-86
2023/03/07 02:58:28;;;;;;;4.38;1.88;;;3.00;99.90;;;;;;4988491;28;20416;-86
2023/03/07 03:04:11;;;;;;;6.65;2.15;;;3.00;99.90;;;;;;5005475;28;20057;-86
2023/03/07 03:06:39;;;;;;;3.78;1.80;;;3.00;99.90;;;;;;5039314;23;20122;-34
2023/03/07 03:09:05;;;;;;;4.60;1.60;;;3.10;99.90;;;;;;5043579;28;20042;-34
2023/03/07 03:11:30;;;;;;;4.32;1.48;;;3.00;99.90;;;;;;5043613;28;20123;-37
2023/03/07 03:13:56;;;;;;;6.00;1.60;;;3.00;99.90;;;;;;5042868;28;20048;-35
2023/03/07 03:16:22;;;;;;;9.50;1.80;;;3.00;99.90;;;;;;5037901;23;20038;-35
2023/03/07 03:18:47;;;;;;;4.82;1.42;;;3.10;99.90;;;;;;5030788;28;20049;-35
2023/03/07 03:21:13;;;;;;;6.00;1.85;;;3.00;99.90;;;;;;5031981;28;20048;-35
2023/03/07 03:23:40;;;;;;;5.38;1.65;;;3.00;99.90;;;;;;5017179;28;20045;-35
2023/03/07 03:26:10;;;;;;;3.88;1.40;;;3.10;99.90;;;;;;5025406;28;20045;-36
2023/03/07 03:28:37;;;;;;;4.85;1.60;;;3.10;99.90;;;;;;5024864;28;20450;-36
2023/03/07 03:31:06;;;;;;;5.20;1.70;;;3.00;99.90;;;;;;5027171;28;20033;-35
2023/03/07 03:33:32;;;;;;;5.45;1.45;;;3.00;99.90;;;;;;5023756;28;20042;-36
2023/03/07 03:36:00;;;;;;;6.15;1.63;;;3.00;99.90;;;;;;5031619;28;20099;-36
2023/03/07 03:38:26;;;;;;;7.07;1.70;;;2.90;99.90;;;;;;5027094;28;20091;-36
2023/03/07 03:40:51;;;;;;;5.22;1.50;;;2.90;99.90;;;;;;5030261;28;20045;-36
2023/03/07 03:43:18;;;;;;;4.65;1.45;;;2.90;99.90;;;;;;5024367;28;20449;-35
2023/03/07 03:45:43;;;;;;;5.45;1.20;;;2.90;99.90;;;;;;5013521;28;20046;-35
2023/03/07 03:48:09;;;;;;;7.72;1.75;;;2.90;99.90;;;;;;5021320;28;20509;-36
2023/03/07 03:50:35;;;;;;;7.97;1.40;;;2.90;99.90;;;;;;5021974;28;20049;-35
2023/03/07 03:53:01;;;;;;;4.20;1.40;;;2.90;99.90;;;;;;5023867;28;20044;-35
2023/03/07 03:55:27;;;;;;;13.30;1.85;;;2.90;99.90;;;;;;5023465;28;20073;-35
2023/03/07 03:57:53;;;;;;;9.90;2.00;;;2.90;99.90;;;;;;5027445;28;20092;-35
2023/03/07 04:00:19;;;;;;;3.22;1.42;;;3.00;99.90;;;;;;5027323;28;20109;-35
2023/03/07 04:02:48;;;;;;;5.45;1.60;;;3.00;99.90;;;;;;5018885;28;20037;-35
2023/03/07 04:05:13;;;;;;;6.93;1.73;;;3.00;99.90;;;;;;5019623;28;20026;-35
2023/03/07 04:07:39;;;;;;;4.53;1.80;;;3.00;99.90;;;;;;5027809;28;20449;-35
2023/03/07 04:10:05;;;;;;;7.25;1.83;;;3.00;99.90;;;;;;5027044;28;20089;-37
2023/03/07 04:12:31;;;;;;;5.25;1.73;;;3.10;99.90;;;;;;5025880;28;20041;-37
2023/03/07 04:14:57;;;;;;;13.13;2.10;;;3.10;99.90;;;;;;5023255;28;20049;-37
2023/03/07 04:17:22;;;;;;;7.20;1.73;;;3.10;99.90;;;;;;5029863;28;20041;-39
2023/03/07 04:19:48;;;;;;;6.53;1.85;;;3.10;99.90;;;;;;5029319;28;20046;-42
2023/03/07 04:22:14;;;;;;;5.95;1.80;;;3.20;99.90;;;;;;5030787;28;20483;-37
2023/03/07 04:24:39;;;;;;;9.77;2.35;;;3.20;99.90;;;;;;5022892;28;20506;-37
2023/03/07 04:27:06;;;;;;;5.40;1.50;;;3.20;99.90;;;;;;5018442;28;20117;-38
2023/03/07 04:29:32;;;;;;;3.35;1.52;;;3.20;99.90;;;;;;5029913;28;20045;-37
2023/03/07 04:31:58;;;;;;;9.35;2.03;;;3.20;99.90;;;;;;5024788;28;20048;-37
2023/03/07 04:34:23;;;;;;;6.43;1.35;;;3.20;99.90;;;;;;5029622;28;20040;-38
2023/03/07 04:36:49;;;;;;;5.82;1.33;;;3.30;99.90;;;;;;5022570;28;20108;-38
2023/03/07 04:39:15;;;;;;;8.70;1.80;;;3.30;99.90;;;;;;5022651;28;20133;-41
2023/03/07 04:41:40;;;;;;;4.13;1.38;;;3.30;99.90;;;;;;5022263;28;20145;-37
2023/03/07 04:44:06;;;;;;;7.40;1.60;;;3.20;99.90;;;;;;5030899;28;20037;-37
2023/03/07 04:46:32;;;;;;;6.43;1.77;;;3.30;99.90;;;;;;5028696;28;20045;-38
2023/03/07 04:48:58;;;;;;;10.65;2.22;;;3.20;99.90;;;;;;5030030;28;20091;-38
2023/03/07 04:51:23;;;;;;;7.30;1.95;;;3.20;99.90;;;;;;5023111;28;20064;-39
2023/03/07 04:53:49;;;;;;;7.25;1.73;;;3.10;99.90;;;;;;5026044;28;20080;-41
2023/03/07 04:56:15;;;;;;;7.55;1.70;;;3.10;99.90;;;;;;5024314;28;20068;-36
2023/03/07 04:58:42;;;;;;;6.38;2.63;;;3.10;99.90;;;;;;5028691;28;20120;-37
2023/03/07 05:01:07;;;;;;;6.22;1.77;;;3.00;99.90;;;;;;5030407;28;20037;-41
2023/03/07 05:03:34;;;;;;;8.10;1.73;;;3.00;99.90;;;;;;5033069;28;20116;-37
2023/03/07 05:06:05;;;;;;;8.07;1.50;;;3.00;99.90;;;;;;5025310;28;20046;-41
2023/03/07 05:08:31;;;;;;;5.72;1.40;;;2.90;99.90;;;;;;5028680;28;20042;-37
2023/03/07 05:10:57;;;;;;;10.20;1.98;;;2.90;99.90;;;;;;5018308;28;20033;-42
2023/03/07 05:13:23;;;;;;;5.70;1.35;;;2.90;99.90;;;;;;5028145;28;20037;-37
2023/03/07 05:15:54;;;;;;;6.22;1.67;;;2.90;99.90;;;;;;5024608;28;20037;-38
2023/03/07 05:18:21;;;;;;;10.32;1.50;;;2.90;99.90;;;;;;5021342;28;20038;-40
2023/03/07 05:20:46;;;;;;;8.70;2.10;;;2.90;99.90;;;;;;5025426;28;20176;-38
2023/03/07 05:23:12;;;;;;;6.47;1.40;;;2.90;99.90;;;;;;5019068;28;20081;-42
2023/03/07 05:25:38;;;;;;;6.22;1.58;;;3.00;99.90;;;;;;5020450;28;20033;-41
2023/03/07 05:28:04;;;;;;;3.90;1.20;;;3.00;99.90;;;;;;5025517;28;20045;-37
2023/03/07 05:30:29;;;;;;;7.60;1.40;;;3.00;99.90;;;;;;5029287;28;20048;-38
2023/03/07 05:32:55;;;;;;;7.32;1.05;;;3.00;99.90;;;;;;5016459;28;20486;-38
2023/03/07 05:35:23;;;;;;;11.50;1.65;;;3.10;99.90;;;;;;5028337;28;20027;-37
2023/03/07 05:37:50;;;;;;;4.88;1.60;;;3.10;99.90;;;;;;5024842;28;20534;-37
2023/03/07 05:40:16;;;;;;;11.15;1.85;;;3.10;99.90;;;;;;5029955;28;20030;-37
2023/03/07 05:42:42;;;;;;;6.32;1.83;;;3.10;99.90;;;;;;5030753;28;20457;-37
2023/03/07 05:45:09;;;;;;;4.57;1.25;;;3.10;99.90;;;;;;5026944;28;20029;-38
2023/03/07 05:47:35;;;;;;;7.75;1.20;;;3.10;99.90;;;;;;5030163;28;20684;-41
2023/03/07 05:50:00;;;;;;;6.75;1.48;;;3.10;99.90;;;;;;5029000;28;20033;-38
2023/03/07 05:52:27;;;;;;;10.60;1.80;;;3.10;99.90;;;;;;5025702;28;20509;-37
2023/03/07 05:54:53;;;;;;;9.63;1.50;;;3.10;99.90;;;;;;5029263;28;20044;-39
2023/03/07 05:57:20;;;;;;;6.97;1.25;;;3.10;99.90;;;;;;5029401;28;20581;-39
2023/03/07 05:59:46;;;;;;;6.07;1.50;;;3.10;99.90;;;;;;5002249;28;20042;-38
2023/03/07 06:02:12;;;;;;;5.80;1.48;;;3.10;99.90;;;;;;5026617;28;20466;-40
2023/03/07 06:04:38;;;;;;;6.75;1.50;;;3.10;99.90;;;;;;5026117;28;20076;-38
2023/03/07 06:07:03;;;;;;;8.90;1.60;;;3.10;99.90;;;;;;5028481;28;20048;-41
2023/03/07 06:09:29;;;;;;;6.03;1.30;;;3.10;99.90;;;;;;5027609;28;20088;-40
2023/03/07 06:11:55;;;;;;;6.38;1.35;;;3.20;99.90;;;;;;5029529;28;20034;-38
2023/03/07 06:14:21;;;;;;;4.85;1.27;;;3.10;99.90;;;;;;5021102;28;20044;-38
2023/03/07 06:16:46;;;;;;;5.75;1.73;;;3.10;99.90;;;;;;5028027;28;20473;-37
2023/03/07 06:19:12;;;;;;;6.40;1.65;;;3.20;99.90;;;;;;5022125;28;20041;-38
2023/03/07 06:21:38;;;;;;;6.10;1.50;;;3.20;99.90;;;;;;5030146;28;20038;-40
2023/03/07 06:24:06;;;;;;;3.70;1.33;;;3.20;99.90;;;;;;5020817;28;20033;-42
2023/03/07 06:26:32;;;;;;;8.52;1.60;;;3.20;99.90;;;;;;5015979;28;20259;-38
2023/03/07 06:28:58;;;;;;;7.72;1.33;;;3.20;99.90;;;;;;5017011;28;20029;-44
2023/03/07 06:31:24;;;;;;;5.18;1.40;;;3.20;99.90;;;;;;5023297;28;20033;-42
2023/03/07 06:33:50;;;;;;;7.20;1.17;;;3.20;99.90;;;;;;5026593;28;20422;-38
2023/03/07 06:36:17;;;;;;;7.00;1.40;;;3.20;99.90;;;;;;5018570;28;20045;-38
2023/03/07 06:38:43;;;;;;;6.00;1.27;;;3.30;99.90;;;;;;5023005;28;20041;-38
2023/03/07 06:41:09;;;;;;;4.45;1.10;;;3.20;99.90;;;;;;5027108;28;20079;-41
2023/03/07 06:43:35;;;;;;;5.57;1.20;;;3.20;99.90;;;;;;5022851;28;20487;-39
2023/03/07 06:46:01;;;;;;;5.78;1.23;;;3.20;99.90;;;;;;5023526;28;20036;-41
2023/03/07 06:48:27;;;;;;;5.07;1.20;;;3.10;99.90;;;;;;5013114;28;20042;-39
2023/03/07 06:50:53;;;;;;;6.43;1.00;;;3.10;99.90;;;;;;5027182;28;20039;-39
2023/03/07 06:53:19;;;;;;;2.95;1.30;;;3.10;99.90;;;;;;5030152;28;20036;-43
2023/03/07 06:55:51;;;;;;;6.00;1.77;;;3.00;99.90;;;;;;5029941;28;20037;-42
2023/03/07 06:58:17;;;;;;;3.97;1.75;;;3.10;99.90;;;;;;5031197;28;20135;-46
2023/03/07 07:00:44;;;;;;;2.42;0.98;;;3.00;99.90;;;;;;5024221;28;20180;-44
2023/03/07 07:03:14;;;;;;;6.68;1.25;;;3.00;99.90;;;;;;5025380;28;20030;-40
2023/03/07 07:05:40;;;;;;;4.60;1.30;;;3.00;99.90;;;;;;5022800;28;20509;-40
2023/03/07 07:08:05;;;;;;;4.72;1.52;;;3.00;99.90;;;;;;5025372;28;20152;-39
2023/03/07 07:10:31;;;;;;;3.72;0.95;;;3.10;99.90;;;;;;5013450;28;20514;-39
2023/03/07 07:12:57;;;;;;;6.20;1.58;;;3.00;99.90;;;;;;5017596;28;20029;-45
2023/03/07 07:15:23;;;;;;;3.35;1.23;;;3.10;99.90;;;;;;5024439;28;20033;-41
2023/03/07 07:17:52;;;;;;;7.13;1.20;;;3.20;99.90;;;;;;5021634;28;20372;-39
2023/03/07 07:20:17;;;;;;;6.53;1.42;;;3.20;99.90;;;;;;5026276;28;20038;-36
2023/03/07 07:22:43;;;;;;;4.30;1.00;;;3.20;99.90;;;;;;5022921;28;20044;-34
2023/03/07 07:25:10;;;;;;;3.38;1.20;;;3.20;99.90;;;;;;5029887;28;20502;-37
2023/03/07 07:27:36;;;;;;;3.45;0.90;;;3.20;99.90;;;;;;5016454;28;20046;-37
2023/03/07 07:30:06;;;;;;;4.30;0.98;;;3.10;99.90;;;;;;5024482;28;20494;-38
2023/03/07 07:32:32;;;;;;;9.93;1.20;;;3.10;99.90;;;;;;5023230;28;20401;-37
2023/03/07 07:34:57;;;;;;;3.17;1.05;;;3.10;99.90;;;;;;5020699;28;20041;-37
2023/03/07 07:37:23;;;;;;;3.67;1.00;;;3.10;99.90;;;;;;5022075;28;20037;-37
2023/03/07 07:39:50;;;;;;;5.80;1.00;;;3.10;99.90;;;;;;5029788;28;20037;-37
2023/03/07 07:42:15;;;;;;;3.65;1.15;;;3.10;99.90;;;;;;5018649;28;20099;-37
2023/03/07 07:44:42;;;;;;;6.35;1.17;;;3.10;99.90;;;;;;5026185;28;20387;-37
2023/03/07 07:47:07;;;;;;;6.70;1.13;;;3.00;99.90;;;;;;5029260;28;20037;-38
2023/03/07 07:49:34;;;;;;;8.27;1.25;;;3.10;99.90;;;;;;5026482;28;20073;-37
2023/03/07 07:52:00;;;;;;;5.93;1.98;;;3.10;99.90;;;;;;5018725;28;20332;-37
2023/03/07 07:54:26;;;;;;;5.22;1.30;;;3.10;99.90;;;;;;5024260;28;20508;-37
2023/03/07 07:56:52;;;;;;;4.15;1.20;;;3.00;99.90;;;;;;5019437;28;20046;-37
2023/03/07 07:59:18;;;;;;;3.40;1.00;;;3.00;99.90;;;;;;5029608;28;20442;-37
2023/03/07 08:01:44;;;;;;;5.22;1.27;;;2.90;99.90;;;;;;5018902;28;20042;-37
2023/03/07 08:04:10;;;;;;;5.30;1.05;;;2.90;99.90;;;;;;5027609;28;20167;-37
2023/03/07 08:06:36;;;;;;;4.50;1.00;;;2.80;99.90;;;;;;5034076;28;20371;-35
2023/03/07 08:09:04;;;;;;;3.22;1.02;;;2.80;99.90;;;;;;5020494;28;20088;-35
2023/03/07 08:11:30;;;;;;;6.90;1.40;;;2.80;99.90;;;;;;5028948;28;20045;-37
2023/03/07 08:13:55;;;;;;;3.60;1.00;;;2.70;99.90;;;;;;5029115;28;20048;-37
2023/03/07 08:16:22;;;;;;;3.75;1.60;;;2.70;99.90;;;;;;5023410;28;20115;-36
2023/03/07 08:18:53;;;;;;;4.50;1.23;;;2.60;99.90;;;;;;5020569;28;20081;-37
2023/03/07 08:21:20;;;;;;;5.28;1.10;;;2.70;99.90;;;;;;5026485;28;20063;-37
2023/03/07 08:23:45;;;;;;;7.10;1.30;;;2.70;99.90;;;;;;5017410;28;20046;-37
2023/03/07 08:26:12;;;;;;;4.18;1.17;;;2.70;99.90;;;;;;5023213;28;20442;-37
2023/03/07 08:28:39;;;;;;;4.75;1.30;;;2.60;99.90;;;;;;5031854;28;20095;-37
2023/03/07 08:31:17;;;;;;;4.35;1.83;;;2.70;99.90;;;;;;5027964;28;20084;-37
2023/03/07 08:33:45;;;;;;;5.13;1.42;;;2.70;99.90;;;;;;5022988;28;20064;-37
2023/03/07 08:36:11;;;;;;;3.63;1.15;;;2.70;99.90;;;;;;5027436;28;20517;-37
2023/03/07 08:38:36;;;;;;;4.05;1.42;;;2.80;99.90;;;;;;5016200;28;20034;-37
2023/03/07 08:41:04;;;;;;;6.15;1.30;;;2.80;99.90;;;;;;5025325;28;20448;-37
2023/03/07 08:43:32;;;;;;;6.43;1.75;;;2.90;99.90;;;;;;5030433;28;20117;-37
2023/03/07 08:45:58;;;;;;;5.47;1.63;;;2.90;99.90;;;;;;5029045;28;20033;-37
2023/03/07 08:48:24;;;;;;;4.60;1.70;;;3.00;99.90;;;;;;5019009;28;20034;-38
2023/03/07 08:50:50;;;;;;;6.07;1.63;;;3.00;99.90;;;;;;5019850;28;20045;-37
2023/03/07 08:53:16;;;;;;;4.88;1.50;;;3.10;99.90;;;;;;5026907;28;20034;-37
2023/03/07 08:55:42;;;;;;;7.63;1.73;;;3.10;99.90;;;;;;5017714;28;20123;-37
2023/03/07 08:58:09;;;;;;;4.03;1.38;;;3.20;99.90;;;;;;5030913;28;20057;-37
2023/03/07 09:00:35;;;;;;;3.63;1.40;;;3.30;99.90;;;;;;5029702;28;20048;-37
2023/03/07 09:03:01;;;;;;;4.57;1.35;;;3.30;99.90;;;;;;5030493;28;20033;-37
2023/03/07 09:05:28;;;;;;;6.05;1.63;;;3.40;99.90;;;;;;5024010;28;20045;-37
2023/03/07 09:07:54;;;;;;;6.10;1.20;;;3.40;99.90;;;;;;5021915;28;20042;-37
2023/03/07 09:10:21;;;;;;;5.82;1.50;;;3.40;99.90;;;;;;5027922;28;20030;-37
2023/03/07 09:12:48;;;;;;;5.75;1.48;;;3.50;99.90;;;;;;5017893;28;20402;-37
2023/03/07 09:15:14;;;;;;;6.53;1.80;;;3.50;99.90;;;;;;5021146;28;20040;-37
2023/03/07 09:17:40;;;;;;;4.47;1.58;;;3.60;99.90;;;;;;5023251;28;20529;-37
2023/03/07 09:20:06;;;;;;;4.63;1.55;;;3.60;99.90;;;;;;5029795;28;20045;-37
2023/03/07 09:22:32;;;;;;;6.80;2.08;;;3.70;99.90;;;;;;5021340;28;20049;-37
2023/03/07 09:24:58;;;;;;;4.10;1.45;;;3.80;99.90;;;;;;5027095;28;20037;-36
2023/03/07 09:27:23;;;;;;;5.43;1.60;;;3.80;99.90;;;;;;5022817;28;20033;-37
2023/03/07 09:29:49;;;;;;;4.70;1.23;;;3.80;99.90;;;;;;5027725;28;20057;-37
2023/03/07 09:32:15;;;;;;;4.38;1.35;;;3.90;99.90;;;;;;5028231;28;20128;-37
2023/03/07 09:34:41;;;;;;;8.82;1.55;;;4.00;99.90;;;;;;5024463;28;20038;-35
2023/03/07 09:37:06;;;;;;;3.03;1.10;;;4.00;99.90;;;;;;5016994;28;20034;-38
2023/03/07 09:39:32;;;;;;;10.00;1.67;;;4.10;99.90;;;;;;5020494;28;20301;-39
2023/03/07 09:42:18;;;;;;;5.43;1.20;;;4.10;99.90;;;;;;5018854;28;20030;-44
2023/03/07 09:44:52;;;;;;;7.05;1.63;;;4.10;99.90;;;;;;5024940;28;20042;-38
2023/03/07 09:48:03;;;;;;;8.07;1.95;;;4.10;99.90;;;;;;5021153;28;20033;-38
2023/03/07 09:50:45;;;;;;;3.45;1.30;;;4.10;99.90;;;;;;5015656;28;20054;-38
2023/03/07 09:53:34;;;;;;;4.50;1.20;;;4.20;99.90;;;;;;5018613;28;20128;-37
2023/03/07 09:56:02;;;;;;;4.55;1.52;;;4.30;99.90;;;;;;5108010;22;20448;-36
2023/03/07 09:58:30;;;;;;;3.67;1.20;;;4.30;99.90;;;;;;5027802;28;20124;-35
2023/03/07 10:00:59;;;;;;;2.80;0.82;;;4.40;99.90;;;;;;5031293;28;20033;-36
2023/03/07 10:03:54;;;;;;;3.10;1.00;;;4.40;99.90;;;;;;5030736;28;20405;-35
2023/03/07 10:06:26;;;;;;;4.28;1.30;;;4.40;99.90;;;;;;5037587;28;20050;-35
2023/03/07 10:08:54;;;;;;;4.18;0.90;;;4.40;99.90;;;;;;5025426;28;20034;-36
2023/03/07 10:11:57;;;;;;;2.70;0.70;;;4.40;99.90;;;;;;5024990;28;20030;-35
2023/03/07 10:14:35;;;;;;;1.88;0.68;;;4.50;99.90;;;;;;5030811;28;20083;-36
2023/03/07 10:17:16;;;;;;;1.95;0.82;;;4.60;99.90;;;;;;5029669;28;20124;-35
2023/03/07 10:19:52;;;;;;;3.67;0.80;;;4.70;99.90;;;;;;5032061;28;20042;-35
2023/03/07 10:22:23;;;;;;;2.13;1.13;;;4.80;99.90;;;;;;5032569;28;20497;-36
2023/03/07 10:24:59;;;;;;;4.13;0.80;;;4.90;99.90;;;;;;5022718;28;20486;-35
2023/03/07 10:27:28;;;;;;;6.50;1.10;;;5.00;99.90;;;;;;5024199;28;20045;-35
2023/03/07 10:29:55;;;;;;;2.70;0.88;;;4.90;99.90;;;;;;5017970;28;20034;-35
2023/03/07 10:32:21;;;;;;;3.08;1.05;;;4.90;99.90;;;;;;5032264;28;20486;-35
2023/03/07 10:35:10;;;;;;;3.20;1.10;;;4.70;99.90;;;;;;5029141;28;20041;-35
2023/03/07 10:37:49;;;;;;;2.70;0.73;;;4.60;99.90;;;;;;5019192;28;20045;-35
2023/03/07 10:40:41;;;;;;;4.90;1.25;;;4.40;99.90;;;;;;5020099;28;20112;-35
2023/03/07 10:43:26;;;;;;;2.38;0.90;;;4.30;99.90;;;;;;5028095;28;20076;-35
2023/03/07 10:46:09;;;;;;;4.93;1.00;;;4.30;99.90;;;;;;5031988;28;20097;-36
2023/03/07 10:48:38;;;;;;;3.67;1.05;;;4.20;99.90;;;;;;5019592;28;20038;-35
2023/03/07 10:51:35;;;;;;;4.85;1.23;;;4.40;99.90;;;;;;5030577;28;20124;-36
2023/03/07 10:54:02;;;;;;;5.20;1.38;;;4.60;99.90;;;;;;4995515;28;20310;-37
2023/03/07 10:56:28;;;;;;;3.08;1.05;;;4.90;99.90;;;;;;5024134;28;20414;-36
2023/03/07 10:59:08;;;;;;;3.42;1.08;;;5.10;99.90;;;;;;5031963;28;20037;-35
2023/03/07 11:01:34;;;;;;;2.95;0.90;;;5.20;99.90;;;;;;5019221;28;20480;-36
2023/03/07 11:04:05;;;;;;;1.58;0.90;;;5.40;99.90;;;;;;5022988;28;20080;-35
2023/03/07 11:06:38;;;;;;;3.42;0.90;;;5.50;99.90;;;;;;5028963;28;20056;-35
2023/03/07 11:09:34;;;;;;;4.28;1.00;;;5.70;99.90;;;;;;5030041;28;20033;-35
2023/03/07 11:12:09;;;;;;;4.18;1.23;;;5.80;99.90;;;;;;5000623;28;20078;-36
2023/03/07 11:14:49;;;;;;;4.15;1.17;;;6.00;99.90;;;;;;5028366;28;20079;-36
2023/03/07 11:17:21;;;;;;;4.15;1.30;;;6.10;99.90;;;;;;5025423;28;20037;-36
2023/03/07 11:19:50;;;;;;;5.32;1.15;;;6.20;99.90;;;;;;5029314;28;20087;-37
2023/03/07 11:22:21;;;;;;;3.17;1.00;;;6.30;99.90;;;;;;5028688;28;20069;-37
2023/03/07 11:24:53;;;;;;;3.35;1.02;;;6.30;99.90;;;;;;5023458;28;20037;-37
2023/03/07 11:27:43;;;;;;;6.55;1.20;;;6.20;99.90;;;;;;5021141;28;20045;-36
2023/03/07 11:30:21;;;;;;;4.07;1.10;;;6.30;99.90;;;;;;5014296;28;20525;-37
2023/03/07 11:33:16;;;;;;;7.40;1.67;;;6.40;99.90;;;;;;5024722;28;20038;-37
2023/03/07 11:35:44;;;;;;;;;;;6.50;99.90;;;;;;5020996;28;20042;-37
2023/03/07 11:38:50;;;;;;;4.53;1.17;;;6.50;99.90;;;;;;5029858;28;20172;-36
2023/03/07 11:41:25;;;;;;;6.63;1.65;;;6.60;99.90;;;;;;5000512;28;20042;-37
2023/03/07 16:02:23;;;;;;;2.97;1.05;;;4.10;99.90;;;;;;4998223;28;20042;-87
